createdAt,value
2023-02-27T00:01:46.849Z,99909.03
2023-02-27T00:04:15.468Z,99913.34
2023-02-27T00:06:43.687Z,99909.91
2023-02-27T00:09:11.774Z,99909.00
2023-02-27T00:11:42.810Z,99902.84
2023-02-27T00:14:11.246Z,99909.91
2023-02-27T00:16:39.501Z,99907.34
2023-02-27T00:19:09.416Z,99915.06
2023-02-27T00:21:38.052Z,99903.78
2023-02-27T00:24:06.738Z,99905.53
2023-02-27T00:26:35.550Z,99910.72
2023-02-27T00:29:05.346Z,99915.97
2023-02-27T00:31:37.172Z,99913.41
2023-02-27T00:34:05.633Z,99927.19
2023-02-27T00:36:33.855Z,99921.97
2023-02-27T00:39:02.070Z,99920.34
2023-02-27T00:41:30.162Z,99929.78
2023-02-27T00:43:58.302Z,99927.22
2023-02-27T00:46:28.122Z,99921.22
2023-02-27T00:48:56.751Z,99923.84
2023-02-27T00:51:25.560Z,99927.28
2023-02-27T00:53:53.938Z,99928.22
2023-02-27T00:56:22.325Z,99935.13
2023-02-27T00:58:50.418Z,99928.13
2023-02-27T01:01:18.681Z,99934.22
2023-02-27T01:03:48.799Z,99935.00
2023-02-27T01:06:17.165Z,99935.06
2023-02-27T01:08:45.379Z,99930.78
2023-02-27T01:11:13.681Z,99934.19
2023-02-27T01:13:42.115Z,99927.38
2023-02-27T01:16:10.652Z,99930.91
2023-02-27T01:18:38.781Z,99932.56
2023-02-27T01:21:08.951Z,99936.97
2023-02-27T01:23:37.401Z,99935.22
2023-02-27T01:26:05.981Z,99936.97
2023-02-27T01:28:34.101Z,99938.72
2023-02-27T01:31:02.350Z,99939.66
2023-02-27T01:33:30.875Z,99938.78
2023-02-27T01:35:59.033Z,99939.66
2023-02-27T01:38:28.987Z,99937.94
2023-02-27T01:40:57.492Z,99933.63
2023-02-27T01:43:26.807Z,99937.97
2023-02-27T01:45:55.651Z,99934.53
2023-02-27T01:48:28.358Z,99934.50
2023-02-27T01:50:59.617Z,99937.09
2023-02-27T01:53:31.942Z,99937.97
2023-02-27T01:56:03.865Z,99934.50
2023-02-27T01:58:32.836Z,99937.06
2023-02-27T02:01:00.888Z,99934.47
2023-02-27T02:03:36.702Z,99927.50
2023-02-27T02:06:07.394Z,99935.34
2023-02-27T02:08:43.389Z,99926.69
2023-02-27T02:11:12.565Z,99927.50
2023-02-27T02:13:42.646Z,99931.84
2023-02-27T02:16:29.158Z,99941.38
2023-02-27T02:19:07.823Z,99934.47
2023-02-27T02:22:10.304Z,99932.72
2023-02-27T02:25:19.376Z,99943.13
2023-02-27T02:28:02.973Z,99934.44
2023-02-27T02:31:09.992Z,99944.81
2023-02-27T02:34:10.940Z,99939.59
2023-02-27T02:37:17.501Z,99943.94
2023-02-27T02:40:04.953Z,99941.34
2023-02-27T02:42:38.993Z,99944.81
2023-02-27T02:45:15.591Z,99941.34
2023-02-27T02:47:55.993Z,99938.75
2023-02-27T02:50:30.737Z,99944.84
2023-02-27T02:53:07.691Z,99948.31
2023-02-27T02:55:43.787Z,99948.34
2023-02-27T02:58:18.472Z,99952.63
2023-02-27T03:00:53.111Z,99942.28
2023-02-27T03:03:27.671Z,99952.69
2023-02-27T03:06:00.272Z,99958.75
2023-02-27T03:08:32.613Z,99952.69
2023-02-27T03:11:04.757Z,99957.00
2023-02-27T03:13:38.169Z,99956.13
2023-02-27T03:16:13.172Z,99962.16
2023-02-27T03:18:47.016Z,99961.31
2023-02-27T03:21:22.936Z,99956.09
2023-02-27T03:23:55.875Z,99950.91
2023-02-27T03:26:35.141Z,99963.94
2023-02-27T03:29:07.948Z,99957.88
2023-02-27T03:31:43.684Z,99952.69
2023-02-27T03:34:19.462Z,99957.88
2023-02-27T03:36:52.641Z,99955.28
2023-02-27T03:39:29.038Z,99957.00
2023-02-27T03:42:06.262Z,99961.31
2023-02-27T03:44:42.928Z,99960.47
2023-02-27T03:47:11.389Z,99962.19
2023-02-27T03:49:40.027Z,99967.38
2023-02-27T03:52:08.205Z,99961.34
2023-02-27T03:54:41.513Z,99964.78
2023-02-27T03:57:15.282Z,99967.41
2023-02-27T03:59:45.750Z,99973.50
2023-02-27T04:02:14.070Z,99969.16
2023-02-27T04:04:42.624Z,99970.88
2023-02-27T04:07:26.089Z,99967.41
2023-02-27T04:10:23.040Z,99968.28
2023-02-27T04:13:23.413Z,99972.63
2023-02-27T04:16:09.018Z,99985.59
2023-02-27T04:18:57.594Z,99983.00
2023-02-27T04:21:31.555Z,99978.69
2023-02-27T04:24:11.477Z,99986.47
2023-02-27T04:26:46.985Z,99987.34
2023-02-27T04:29:20.109Z,99996.00
2023-02-27T04:31:56.123Z,99991.69
2023-02-27T04:34:32.568Z,99994.28
2023-02-27T04:37:07.210Z,99997.75
2023-02-27T04:39:41.108Z,100007.25
2023-02-27T04:42:15.427Z,100003.81
2023-02-27T04:44:45.255Z,100006.41
2023-02-27T04:47:17.430Z,100002.94
2023-02-27T04:49:49.789Z,100005.53
2023-02-27T04:52:23.940Z,100015.06
2023-02-27T04:54:59.217Z,100022.81
2023-02-27T04:57:32.048Z,100012.47
2023-02-27T05:00:06.105Z,100012.44
2023-02-27T05:02:39.473Z,100021.94
2023-02-27T05:05:11.429Z,100024.53
2023-02-27T05:07:46.548Z,100025.44
2023-02-27T05:10:19.497Z,100028.00
2023-02-27T05:12:53.353Z,100029.75
2023-02-27T05:15:25.723Z,100028.88
2023-02-27T05:18:02.099Z,100023.66
2023-02-27T05:20:41.824Z,100027.97
2023-02-27T05:23:17.009Z,100031.44
2023-02-27T05:25:50.180Z,100030.56
2023-02-27T05:28:22.461Z,100029.63
2023-02-27T05:30:56.431Z,100046.06
2023-02-27T05:33:30.979Z,100040.03
2023-02-27T05:36:05.078Z,100046.94
2023-02-27T05:38:39.674Z,100043.50
2023-02-27T05:41:13.090Z,100046.97
2023-02-27T05:43:45.546Z,100047.00
2023-02-27T05:46:21.780Z,100049.56
2023-02-27T05:48:55.650Z,100040.94
2023-02-27T05:51:28.874Z,100048.72
2023-02-27T05:54:02.713Z,100049.59
2023-02-27T05:56:34.061Z,100048.72
2023-02-27T05:59:08.243Z,100048.72
2023-02-27T06:01:36.487Z,100046.97
2023-02-27T06:04:06.402Z,100045.25
2023-02-27T06:06:37.239Z,100056.50
2023-02-27T06:09:05.834Z,100053.88
2023-02-27T06:11:34.715Z,100056.50
2023-02-27T06:14:03.543Z,100058.22
2023-02-27T06:16:32.472Z,100059.06
2023-02-27T06:19:04.848Z,100063.41
2023-02-27T06:21:35.333Z,100060.00
2023-02-27T06:24:03.692Z,100058.28
2023-02-27T06:26:32.159Z,100066.06
2023-02-27T06:29:00.386Z,100073.84
2023-02-27T06:31:28.415Z,100071.25
2023-02-27T06:33:57.094Z,100072.13
2023-02-27T06:36:25.559Z,100078.16
2023-02-27T06:38:55.568Z,100070.34
2023-02-27T06:41:23.762Z,100071.25
2023-02-27T06:43:52.237Z,100064.31
2023-02-27T06:46:20.487Z,100072.06
2023-02-27T06:48:48.649Z,100079.03
2023-02-27T06:51:16.963Z,100071.25
2023-02-27T06:53:45.331Z,100077.31
2023-02-27T06:56:15.262Z,100077.31
2023-02-27T06:58:46.310Z,100076.44
2023-02-27T07:01:14.840Z,100086.84
2023-02-27T07:03:42.973Z,100083.38
2023-02-27T07:06:12.759Z,100087.69
2023-02-27T07:09:01.624Z,100086.81
2023-02-27T07:11:33.277Z,100092.88
2023-02-27T07:14:01.674Z,100096.38
2023-02-27T07:16:30.111Z,100092.91
2023-02-27T07:18:59.112Z,100100.72
2023-02-27T07:21:27.456Z,100102.44
2023-02-27T07:23:58.563Z,100105.06
2023-02-27T07:26:27.328Z,100112.00
2023-02-27T07:28:57.525Z,100110.25
2023-02-27T07:31:27.959Z,100110.25
2023-02-27T07:33:57.135Z,100114.59
2023-02-27T07:36:25.841Z,100115.44
2023-02-27T07:38:54.459Z,100111.13
2023-02-27T07:41:30.326Z,100107.66
2023-02-27T07:44:00.854Z,100106.75
2023-02-27T07:46:29.310Z,100105.03
2023-02-27T07:48:57.737Z,100109.28
2023-02-27T07:51:25.798Z,100105.81
2023-02-27T07:53:54.024Z,100105.81
2023-02-27T07:56:22.470Z,100106.66
2023-02-27T07:58:50.736Z,100105.75
2023-02-27T08:01:20.495Z,100107.47
2023-02-27T08:03:49.873Z,100106.63
2023-02-27T08:06:18.178Z,100108.22
2023-02-27T08:08:46.297Z,100111.66
2023-02-27T08:11:15.617Z,100102.16
2023-02-27T08:14:00.193Z,100098.59
2023-02-27T08:16:31.405Z,100106.28
2023-02-27T08:19:00.761Z,100097.63
2023-02-27T08:21:29.929Z,100107.16
2023-02-27T08:23:58.831Z,100103.56
2023-02-27T08:26:27.895Z,100106.13
2023-02-27T08:28:56.318Z,100101.84
2023-02-27T08:31:24.965Z,100108.75
2023-02-27T08:34:04.393Z,100111.16
2023-02-27T08:36:37.907Z,100104.19
2023-02-27T08:39:06.452Z,100100.59
2023-02-27T08:41:34.805Z,100098.78
2023-02-27T08:44:03.309Z,100106.75
2023-02-27T08:46:31.391Z,100115.94
2023-02-27T08:49:01.013Z,100107.94
2023-02-27T08:51:30.131Z,100108.97
2023-02-27T08:54:00.232Z,100116.56
2023-02-27T08:56:29.052Z,100115.75
2023-02-27T08:58:58.096Z,100107.75
2023-02-27T09:01:31.673Z,100117.25
2023-02-27T09:04:02.656Z,100113.72
2023-02-27T09:06:32.284Z,100108.09
2023-02-27T09:09:00.858Z,100125.81
2023-02-27T09:11:29.897Z,100113.41
2023-02-27T09:13:59.046Z,100115.31
2023-02-27T09:16:28.226Z,100124.47
2023-02-27T09:18:57.076Z,100120.00
2023-02-27T09:21:27.644Z,100124.22
2023-02-27T09:24:02.527Z,100131.13
2023-02-27T09:26:45.038Z,100130.44
2023-02-27T09:29:14.417Z,100127.84
2023-02-27T09:31:42.609Z,100128.59
2023-02-27T09:34:11.576Z,100125.19
2023-02-27T09:36:41.654Z,100125.66
2023-02-27T09:39:10.361Z,100128.69
2023-02-27T09:41:49.747Z,100131.22
2023-02-27T09:44:39.721Z,100121.25
2023-02-27T09:47:18.317Z,100129.44
2023-02-27T09:50:03.161Z,100124.38
2023-02-27T09:52:35.254Z,100122.63
2023-02-27T09:55:04.448Z,100120.94
2023-02-27T09:57:43.934Z,100116.94
2023-02-27T10:00:31.077Z,100113.88
2023-02-27T10:03:12.945Z,100130.41
2023-02-27T10:05:49.874Z,100123.72
2023-02-27T10:08:26.677Z,100112.72
2023-02-27T10:11:01.743Z,100118.38
2023-02-27T10:13:52.170Z,100107.31
2023-02-27T10:16:23.394Z,100114.41
2023-02-27T10:18:58.551Z,100118.03
2023-02-27T10:21:32.792Z,100125.41
2023-02-27T10:24:09.700Z,100123.44
2023-02-27T10:26:41.031Z,100129.44
2023-02-27T10:29:21.073Z,100128.53
2023-02-27T10:31:54.936Z,100128.66
2023-02-27T10:34:26.087Z,100129.72
2023-02-27T10:36:55.068Z,100124.47
2023-02-27T10:39:26.678Z,100126.38
2023-02-27T10:41:55.935Z,100122.31
2023-02-27T10:44:24.726Z,100129.59
2023-02-27T10:46:53.555Z,100120.16
2023-02-27T10:49:23.426Z,100118.41
2023-02-27T10:52:07.756Z,100108.59
2023-02-27T10:54:38.786Z,100113.25
2023-02-27T10:57:20.156Z,100118.47
2023-02-27T10:59:57.030Z,100114.75
2023-02-27T11:02:30.070Z,100114.00
2023-02-27T11:05:01.451Z,100109.31
2023-02-27T11:07:32.421Z,100110.09
2023-02-27T11:10:08.834Z,100101.97
2023-02-27T11:12:38.450Z,100105.84
2023-02-27T11:15:25.812Z,100104.31
2023-02-27T11:17:55.241Z,100109.88
2023-02-27T11:20:39.939Z,100105.69
2023-02-27T11:23:16.152Z,100104.22
2023-02-27T11:25:46.447Z,100096.66
2023-02-27T11:28:21.373Z,100085.00
2023-02-27T11:30:59.380Z,100095.06
2023-02-27T11:33:29.295Z,100093.81
2023-02-27T11:35:58.829Z,100090.56
2023-02-27T11:38:30.808Z,100081.91
2023-02-27T11:41:03.862Z,100085.44
2023-02-27T11:43:35.217Z,100081.03
2023-02-27T11:46:27.086Z,100076.19
2023-02-27T11:49:00.460Z,100081.47
2023-02-27T11:51:39.971Z,100072.88
2023-02-27T11:54:15.980Z,100064.66
2023-02-27T11:56:50.033Z,100070.19
2023-02-27T11:59:26.624Z,100077.50
2023-02-27T12:01:59.295Z,100063.47
2023-02-27T12:04:34.776Z,100076.25
2023-02-27T12:07:11.370Z,100073.88
2023-02-27T12:09:46.544Z,100074.00
2023-02-27T12:12:23.977Z,100069.81
2023-02-27T12:15:02.192Z,100062.81
2023-02-27T12:17:36.297Z,100054.56
2023-02-27T12:20:29.325Z,100068.84
2023-02-27T12:22:58.335Z,100071.63
2023-02-27T12:25:40.926Z,100061.50
2023-02-27T12:28:20.789Z,100050.34
2023-02-27T12:31:02.246Z,100049.53
2023-02-27T12:33:40.035Z,100050.03
2023-02-27T12:36:15.582Z,100043.06
2023-02-27T12:38:44.394Z,100044.03
2023-02-27T12:41:37.341Z,100041.72
2023-02-27T12:44:35.230Z,100040.44
2023-02-27T12:47:14.969Z,100037.38
2023-02-27T12:49:51.824Z,100046.91
2023-02-27T12:52:34.244Z,100049.28
2023-02-27T12:55:11.634Z,100046.47
2023-02-27T12:58:09.420Z,100047.41
2023-02-27T13:00:47.689Z,100037.50
2023-02-27T13:03:20.518Z,100022.47
2023-02-27T13:05:59.260Z,100036.88
2023-02-27T13:08:49.627Z,100039.09
2023-02-27T13:11:27.264Z,100026.88
2023-02-27T13:14:00.430Z,100033.38
2023-02-27T13:16:34.726Z,100031.19
2023-02-27T13:19:07.838Z,100029.41
2023-02-27T13:21:40.314Z,100034.13
2023-02-27T13:24:24.065Z,100037.22
2023-02-27T13:26:58.767Z,100031.63
2023-02-27T13:29:38.466Z,100030.91
2023-02-27T13:32:41.698Z,100027.16
2023-02-27T13:35:24.825Z,100032.78
2023-02-27T13:37:56.117Z,100028.03
2023-02-27T13:40:39.570Z,100023.31
2023-02-27T13:43:51.307Z,100031.81
2023-02-27T13:46:25.744Z,100022.97
2023-02-27T13:48:56.256Z,100027.44
2023-02-27T13:51:56.781Z,100021.63
2023-02-27T13:54:34.296Z,100015.72
2023-02-27T13:57:24.782Z,100030.38
2023-02-27T14:00:08.862Z,100028.06
2023-02-27T14:02:59.847Z,100033.19
2023-02-27T14:05:35.089Z,100030.56
2023-02-27T14:08:12.151Z,100026.97
2023-02-27T14:10:52.274Z,100027.44
2023-02-27T14:13:54.936Z,100034.59
2023-02-27T14:16:56.401Z,100037.25
2023-02-27T14:19:53.128Z,100037.06
2023-02-27T14:22:41.754Z,100052.25
2023-02-27T14:25:20.048Z,100046.25
2023-02-27T14:27:57.069Z,100047.22
2023-02-27T14:30:33.005Z,100047.97
2023-02-27T14:33:09.125Z,100055.06
2023-02-27T14:35:38.018Z,100050.03
2023-02-27T14:38:13.086Z,100055.50
2023-02-27T14:40:51.743Z,100050.03
2023-02-27T14:43:32.061Z,100042.25
2023-02-27T14:46:09.100Z,100045.53
2023-02-27T14:48:39.375Z,100043.19
2023-02-27T14:51:07.965Z,100044.84
2023-02-27T14:53:37.822Z,100043.31
2023-02-27T14:56:06.207Z,100044.00
2023-02-27T14:58:34.443Z,100044.25
2023-02-27T15:01:10.119Z,100044.63
2023-02-27T15:03:42.424Z,100043.56
2023-02-27T15:06:18.664Z,100045.19
2023-02-27T15:08:52.729Z,100042.97
2023-02-27T15:11:22.794Z,100054.41
2023-02-27T15:13:57.901Z,100048.50
2023-02-27T15:16:39.028Z,100047.16
2023-02-27T15:19:37.431Z,100050.44
2023-02-27T15:22:28.932Z,100052.56
2023-02-27T15:25:08.322Z,100057.97
2023-02-27T15:27:38.733Z,100057.88
2023-02-27T15:30:09.872Z,100057.00
2023-02-27T15:32:43.245Z,100060.31
2023-02-27T15:35:17.204Z,100060.38
2023-02-27T15:37:50.267Z,100064.13
2023-02-27T15:40:25.728Z,100062.41
2023-02-27T15:42:54.755Z,100062.31
2023-02-27T15:45:27.284Z,100065.88
2023-02-27T15:47:55.654Z,100057.81
2023-02-27T15:50:28.870Z,100067.00
2023-02-27T15:53:01.605Z,100069.13
2023-02-27T15:55:34.210Z,100067.97
2023-02-27T15:58:04.301Z,100074.34
2023-02-27T16:00:35.469Z,100076.06
2023-02-27T16:03:03.999Z,100076.47
2023-02-27T16:05:36.987Z,100077.56
2023-02-27T16:08:07.028Z,100083.25
2023-02-27T16:10:42.432Z,100081.41
2023-02-27T16:13:35.178Z,100080.66
2023-02-27T16:16:05.759Z,100080.72
2023-02-27T16:18:35.991Z,100085.97
2023-02-27T16:21:13.207Z,100085.78
2023-02-27T16:23:41.517Z,100087.38
2023-02-27T16:26:36.724Z,100097.56
2023-02-27T16:29:07.719Z,100099.34
2023-02-27T16:31:38.391Z,100101.03
2023-02-27T16:34:16.761Z,100092.66
2023-02-27T16:36:57.297Z,100104.94
2023-02-27T16:39:26.074Z,100096.50
2023-02-27T16:41:56.997Z,100099.09
2023-02-27T16:44:25.484Z,100094.81
2023-02-27T16:46:54.448Z,100107.84
2023-02-27T16:49:24.843Z,100104.31
2023-02-27T16:51:54.101Z,100107.59
2023-02-27T16:54:24.777Z,100107.00
2023-02-27T16:56:53.367Z,100104.78
2023-02-27T16:59:30.448Z,100116.78
2023-02-27T17:02:01.600Z,100119.00
2023-02-27T17:04:31.037Z,100118.75
2023-02-27T17:07:05.345Z,100120.06
2023-02-27T17:09:35.274Z,100119.16
2023-02-27T17:12:03.414Z,100128.81
2023-02-27T17:14:33.538Z,100123.13
2023-02-27T17:17:02.008Z,100129.97
2023-02-27T17:19:31.152Z,100131.00
2023-02-27T17:21:59.594Z,100128.03
2023-02-27T17:24:27.992Z,100130.72
2023-02-27T17:26:56.928Z,100126.34
2023-02-27T17:29:25.209Z,100133.69
2023-02-27T17:31:55.249Z,100136.72
2023-02-27T17:34:23.617Z,100141.34
2023-02-27T17:36:51.796Z,100146.53
2023-02-27T17:39:20.476Z,100137.81
2023-02-27T17:41:53.139Z,100143.97
2023-02-27T17:44:21.583Z,100149.09
2023-02-27T17:46:50.187Z,100139.69
2023-02-27T17:49:20.090Z,100138.94
2023-02-27T17:51:48.635Z,100143.34
2023-02-27T17:54:17.437Z,100144.84
2023-02-27T17:56:45.562Z,100151.16
2023-02-27T17:59:13.849Z,100154.53
2023-02-27T18:01:42.224Z,100155.16
2023-02-27T18:04:11.575Z,100155.91
2023-02-27T18:06:41.356Z,100156.34
2023-02-27T18:09:09.578Z,100162.06
2023-02-27T18:11:39.053Z,100156.13
2023-02-27T18:14:07.669Z,100162.94
2023-02-27T18:16:36.492Z,100161.22
2023-02-27T18:19:05.786Z,100160.75
2023-02-27T18:21:35.293Z,100161.66
2023-02-27T18:24:06.848Z,100155.66
2023-02-27T18:26:35.397Z,100162.78
2023-02-27T18:29:06.611Z,100158.38
2023-02-27T18:31:36.843Z,100157.75
2023-02-27T18:34:05.787Z,100169.84
2023-02-27T18:36:35.246Z,100162.66
2023-02-27T18:39:06.380Z,100160.13
2023-02-27T18:41:35.059Z,100162.94
2023-02-27T18:44:03.750Z,100165.28
2023-02-27T18:46:32.689Z,100171.88
2023-02-27T18:49:01.228Z,100165.88
2023-02-27T18:51:29.597Z,100171.03
2023-02-27T18:53:58.535Z,100164.06
2023-02-27T18:56:30.808Z,100165.22
2023-02-27T18:59:02.176Z,100166.75
2023-02-27T19:01:33.085Z,100159.63
2023-02-27T19:04:04.050Z,100153.41
2023-02-27T19:06:33.855Z,100159.44
2023-02-27T19:09:02.459Z,100160.25
2023-02-27T19:11:34.719Z,100165.44
2023-02-27T19:14:04.666Z,100164.41
2023-02-27T19:16:33.261Z,100161.81
2023-02-27T19:19:03.408Z,100168.69
2023-02-27T19:21:32.799Z,100161.03
2023-02-27T19:24:00.907Z,100163.06
2023-02-27T19:26:29.987Z,100168.47
2023-02-27T19:29:02.180Z,100157.97
2023-02-27T19:31:30.376Z,100174.50
2023-02-27T19:33:59.573Z,100172.22
2023-02-27T19:36:29.713Z,100165.38
2023-02-27T19:38:59.116Z,100163.97
2023-02-27T19:41:27.820Z,100168.16
2023-02-27T19:43:56.640Z,100170.75
2023-02-27T19:46:29.732Z,100174.25
2023-02-27T19:49:01.804Z,100170.63
2023-02-27T19:51:30.393Z,100168.72
2023-02-27T19:53:58.942Z,100180.06
2023-02-27T19:56:30.159Z,100183.63
2023-02-27T19:58:59.093Z,100183.97
2023-02-27T20:01:31.338Z,100183.19
2023-02-27T20:04:00.451Z,100188.47
2023-02-27T20:06:30.797Z,100183.84
2023-02-27T20:09:01.144Z,100186.38
2023-02-27T20:11:30.747Z,100191.91
2023-02-27T20:13:59.412Z,100185.59
2023-02-27T20:16:30.883Z,100193.50
2023-02-27T20:18:59.278Z,100199.00
2023-02-27T20:21:28.946Z,100194.69
2023-02-27T20:23:58.977Z,100196.41
2023-02-27T20:26:30.147Z,100196.31
2023-02-27T20:29:01.807Z,100195.88
2023-02-27T20:31:33.475Z,100197.38
2023-02-27T20:34:02.308Z,100193.91
2023-02-27T20:36:31.064Z,100196.41
2023-02-27T20:38:59.347Z,100193.72
2023-02-27T20:41:29.792Z,100184.91
2023-02-27T20:43:58.906Z,100193.66
2023-02-27T20:46:29.833Z,100188.72
2023-02-27T20:49:02.550Z,100190.28
2023-02-27T20:51:35.502Z,100193.84
2023-02-27T20:54:06.594Z,100185.94
2023-02-27T20:56:40.487Z,100190.38
2023-02-27T20:59:14.118Z,100188.59
2023-02-27T21:01:43.125Z,100179.44
2023-02-27T21:04:13.170Z,100176.66
2023-02-27T21:06:41.856Z,100184.22
2023-02-27T21:09:10.889Z,100177.91
2023-02-27T21:11:39.406Z,100181.03
2023-02-27T21:14:12.616Z,100184.31
2023-02-27T21:16:41.697Z,100186.09
2023-02-27T21:19:10.143Z,100193.03
2023-02-27T21:21:40.900Z,100194.78
2023-02-27T21:24:10.684Z,100182.69
2023-02-27T21:26:40.742Z,100192.44
2023-02-27T21:29:11.944Z,100195.91
2023-02-27T21:31:42.207Z,100193.31
2023-02-27T21:34:13.964Z,100195.81
2023-02-27T21:36:45.496Z,100187.97
2023-02-27T21:39:16.704Z,100194.19
2023-02-27T21:41:45.857Z,100193.34
2023-02-27T21:44:15.123Z,100185.34
2023-02-27T21:46:43.423Z,100186.38
2023-02-27T21:49:17.035Z,100189.91
2023-02-27T21:51:47.286Z,100185.50
2023-02-27T21:54:16.984Z,100180.72
2023-02-27T21:56:46.405Z,100184.09
2023-02-27T21:59:15.528Z,100176.66
2023-02-27T22:01:49.745Z,100175.44
2023-02-27T22:04:22.152Z,100171.41
2023-02-27T22:06:53.680Z,100175.69
2023-02-27T22:09:22.562Z,100176.47
2023-02-27T22:11:51.712Z,100187.78
2023-02-27T22:14:20.221Z,100182.72
2023-02-27T22:16:50.180Z,100186.47
2023-02-27T22:19:22.251Z,100185.66
2023-02-27T22:21:53.160Z,100183.13
2023-02-27T22:24:21.839Z,100182.34
2023-02-27T22:26:50.465Z,100183.25
2023-02-27T22:29:19.506Z,100182.50
2023-02-27T22:31:48.013Z,100179.78
2023-02-27T22:34:19.081Z,100187.66
2023-02-27T22:36:52.372Z,100190.44
2023-02-27T22:39:22.760Z,100189.72
2023-02-27T22:41:51.391Z,100181.13
2023-02-27T22:44:19.911Z,100189.84
2023-02-27T22:46:50.328Z,100189.75
2023-02-27T22:49:22.405Z,100186.38
2023-02-27T22:51:52.101Z,100183.78
2023-02-27T22:54:25.602Z,100178.63
2023-02-27T22:56:56.980Z,100180.31
2023-02-27T22:59:28.697Z,100189.13
2023-02-27T23:01:59.705Z,100185.75
2023-02-27T23:04:27.992Z,100186.59
2023-02-27T23:06:57.147Z,100195.19
2023-02-27T23:09:27.546Z,100203.09
2023-02-27T23:11:56.737Z,100192.59
2023-02-27T23:14:26.693Z,100202.25
2023-02-27T23:16:55.235Z,100204.81
2023-02-27T23:19:24.462Z,100202.19
2023-02-27T23:21:52.808Z,100212.66
2023-02-27T23:24:21.627Z,100203.97
2023-02-27T23:26:53.486Z,100212.69
2023-02-27T23:29:21.895Z,100207.38
2023-02-27T23:31:50.217Z,100216.00
2023-02-27T23:34:18.593Z,100205.56
2023-02-27T23:36:46.684Z,100197.78
2023-02-27T23:39:14.978Z,100208.13
2023-02-27T23:41:44.473Z,100196.78
2023-02-27T23:44:14.213Z,100200.34
2023-02-27T23:46:42.232Z,100202.19
2023-02-27T23:49:13.925Z,100211.78
2023-02-27T23:51:42.258Z,100202.22
2023-02-27T23:54:10.754Z,100203.19
2023-02-27T23:56:39.348Z,100206.63
2023-02-27T23:59:08.699Z,100200.66
